sensor_id;sensor_type;location;lat;lon;timestamp;pressure;altitude;pressure_sealevel;temperature
74485;BMP280;62942;52.462;10.846;2023-01-24T00:00:06;103150;;;
74485;BMP280;62942;52.462;10.846;2023-01-24T00:01:15;103150;;;
74485;BMP280;62942;52.462;10.846;2023-01-24T00:02:15;103140.00000000001;;;
74485;BMP280;62942;52.462;10.846;2023-01-24T00:03:25;103140.00000000001;;;
74485;BMP280;62942;52.462;10.846;2023-01-24T00:04:25;103150;;;
74485;BMP280;62942;52.462;10.846;2023-01-24T00:05:35;103140.00000000001;;;
74485;BMP280;62942;52.462;10.846;2023-01-24T00:06:45;103130;;;
74485;BMP280;62942;52.462;10.846;2023-01-24T00:07:55;103140.00000000001;;;
74485;BMP280;62942;52.462;10.846;2023-01-24T00:08:55;103140.00000000001;;;
74485;BMP280;62942;52.462;10.846;2023-01-24T00:10:05;103140.00000000001;;;
74485;BMP280;62942;52.462;10.846;2023-01-24T00:11:05;103140.00000000001;;;
74485;BMP280;62942;52.462;10.846;2023-01-24T00:12:05;103140.00000000001;;;
74485;BMP280;62942;52.462;10.846;2023-01-24T00:13:15;103159.99999999999;;;
74485;BMP280;62942;52.462;10.846;2023-01-24T00:14:15;103150;;;
74485;BMP280;62942;52.462;10.846;2023-01-24T00:15:25;103159.99999999999;;;
74485;BMP280;62942;52.462;10.846;2023-01-24T00:16:35;103150;;;
74485;BMP280;62942;52.462;10.846;2023-01-24T00:17:45;103159.99999999999;;;
74485;BMP280;62942;52.462;10.846;2023-01-24T00:18:45;103159.99999999999;;;
74485;BMP280;62942;52.462;10.846;2023-01-24T00:19:45;103150;;;
74485;BMP280;62942;52.462;10.846;2023-01-24T00:20:59;103159.99999999999;;;
74485;BMP280;62942;52.462;10.846;2023-01-24T00:22:05;103150;;;
74485;BMP280;62942;52.462;10.846;2023-01-24T00:23:05;103150;;;
74485;BMP280;62942;52.462;10.846;2023-01-24T00:24:15;103150;;;
74485;BMP280;62942;52.462;10.846;2023-01-24T00:25:15;103150;;;
74485;BMP280;62942;52.462;10.846;2023-01-24T00:26:25;103140.00000000001;;;
74485;BMP280;62942;52.462;10.846;2023-01-24T00:27:25;103140.00000000001;;;
74485;BMP280;62942;52.462;10.846;2023-01-24T00:28:35;103140.00000000001;;;
74485;BMP280;62942;52.462;10.846;2023-01-24T00:29:35;103140.00000000001;;;
74485;BMP280;62942;52.462;10.846;2023-01-24T00:30:45;103140.00000000001;;;
74485;BMP280;62942;52.462;10.846;2023-01-24T00:31:55;103150;;;
74485;BMP280;62942;52.462;10.846;2023-01-24T00:32:55;103150;;;
74485;BMP280;62942;52.462;10.846;2023-01-24T00:34:05;103140.00000000001;;;
74485;BMP280;62942;52.462;10.846;2023-01-24T00:35:15;103150;;;
74485;BMP280;62942;52.462;10.846;2023-01-24T00:36:15;103150;;;
74485;BMP280;62942;52.462;10.846;2023-01-24T00:37:15;103150;;;
74485;BMP280;62942;52.462;10.846;2023-01-24T00:38:25;103150;;;
74485;BMP280;62942;52.462;10.846;2023-01-24T00:39:35;103150;;;
74485;BMP280;62942;52.462;10.846;2023-01-24T00:40:45;103150;;;
74485;BMP280;62942;52.462;10.846;2023-01-24T00:41:55;103150;;;
74485;BMP280;62942;52.462;10.846;2023-01-24T00:43:05;103150;;;
74485;BMP280;62942;52.462;10.846;2023-01-24T00:44:15;103140.00000000001;;;
74485;BMP280;62942;52.462;10.846;2023-01-24T00:45:25;103150;;;
74485;BMP280;62942;52.462;10.846;2023-01-24T00:46:25;103140.00000000001;;;
74485;BMP280;62942;52.462;10.846;2023-01-24T00:47:35;103140.00000000001;;;
74485;BMP280;62942;52.462;10.846;2023-01-24T00:48:45;103140.00000000001;;;
74485;BMP280;62942;52.462;10.846;2023-01-24T00:49:55;103140.00000000001;;;
74485;BMP280;62942;52.462;10.846;2023-01-24T00:51:05;103140.00000000001;;;
74485;BMP280;62942;52.462;10.846;2023-01-24T00:52:15;103130;;;
74485;BMP280;62942;52.462;10.846;2023-01-24T00:53:25;103130;;;
74485;BMP280;62942;52.462;10.846;2023-01-24T00:54:35;103140.00000000001;;;
74485;BMP280;62942;52.462;10.846;2023-01-24T00:55:45;103140.00000000001;;;
74485;BMP280;62942;52.462;10.846;2023-01-24T00:56:55;103130;;;
74485;BMP280;62942;52.462;10.846;2023-01-24T00:58:05;103140.00000000001;;;
74485;BMP280;62942;52.462;10.846;2023-01-24T00:59:15;103140.00000000001;;;
74485;BMP280;62942;52.462;10.846;2023-01-24T01:00:15;103140.00000000001;;;
74485;BMP280;62942;52.462;10.846;2023-01-24T01:01:25;103140.00000000001;;;
74485;BMP280;62942;52.462;10.846;2023-01-24T01:02:35;103150;;;
74485;BMP280;62942;52.462;10.846;2023-01-24T01:03:45;103140.00000000001;;;
74485;BMP280;62942;52.462;10.846;2023-01-24T01:04:55;103140.00000000001;;;
74485;BMP280;62942;52.462;10.846;2023-01-24T01:06:05;103140.00000000001;;;
74485;BMP280;62942;52.462;10.846;2023-01-24T01:07:15;103140.00000000001;;;
74485;BMP280;62942;52.462;10.846;2023-01-24T01:08:25;103140.00000000001;;;
74485;BMP280;62942;52.462;10.846;2023-01-24T01:09:35;103140.00000000001;;;
74485;BMP280;62942;52.462;10.846;2023-01-24T01:10:35;103150;;;
74485;BMP280;62942;52.462;10.846;2023-01-24T01:11:45;103140.00000000001;;;
74485;BMP280;62942;52.462;10.846;2023-01-24T01:12:55;103140.00000000001;;;
74485;BMP280;62942;52.462;10.846;2023-01-24T01:14:05;103140.00000000001;;;
74485;BMP280;62942;52.462;10.846;2023-01-24T01:15:15;103140.00000000001;;;
74485;BMP280;62942;52.462;10.846;2023-01-24T01:16:16;103140.00000000001;;;
74485;BMP280;62942;52.462;10.846;2023-01-24T01:17:25;103130;;;
74485;BMP280;62942;52.462;10.846;2023-01-24T01:18:35;103140.00000000001;;;
74485;BMP280;62942;52.462;10.846;2023-01-24T01:19:35;103130;;;
74485;BMP280;62942;52.462;10.846;2023-01-24T01:20:48;103140.00000000001;;;
74485;BMP280;62942;52.462;10.846;2023-01-24T01:21:55;103140.00000000001;;;
74485;BMP280;62942;52.462;10.846;2023-01-24T01:23:05;103140.00000000001;;;
74485;BMP280;62942;52.462;10.846;2023-01-24T01:24:15;103140.00000000001;;;
74485;BMP280;62942;52.462;10.846;2023-01-24T01:25:25;103150;;;
74485;BMP280;62942;52.462;10.846;2023-01-24T01:26:35;103140.00000000001;;;
74485;BMP280;62942;52.462;10.846;2023-01-24T01:27:45;103140.00000000001;;;
74485;BMP280;62942;52.462;10.846;2023-01-24T01:28:55;103140.00000000001;;;
74485;BMP280;62942;52.462;10.846;2023-01-24T01:30:05;103150;;;
74485;BMP280;62942;52.462;10.846;2023-01-24T01:31:15;103150;;;
74485;BMP280;62942;52.462;10.846;2023-01-24T01:32:25;103140.00000000001;;;
74485;BMP280;62942;52.462;10.846;2023-01-24T01:33:35;103140.00000000001;;;
74485;BMP280;62942;52.462;10.846;2023-01-24T01:34:35;103140.00000000001;;;
74485;BMP280;62942;52.462;10.846;2023-01-24T01:35:35;103140.00000000001;;;
74485;BMP280;62942;52.462;10.846;2023-01-24T01:36:45;103150;;;
74485;BMP280;62942;52.462;10.846;2023-01-24T01:37:55;103150;;;
74485;BMP280;62942;52.462;10.846;2023-01-24T01:38:55;103150;;;
74485;BMP280;62942;52.462;10.846;2023-01-24T01:40:05;103150;;;
74485;BMP280;62942;52.462;10.846;2023-01-24T01:41:15;103150;;;
74485;BMP280;62942;52.462;10.846;2023-01-24T01:42:25;103150;;;
74485;BMP280;62942;52.462;10.846;2023-01-24T01:43:34;103140.00000000001;;;
74485;BMP280;62942;52.462;10.846;2023-01-24T01:44:46;103150;;;
74485;BMP280;62942;52.462;10.846;2023-01-24T01:45:55;103140.00000000001;;;
74485;BMP280;62942;52.462;10.846;2023-01-24T01:46:55;103140.00000000001;;;
74485;BMP280;62942;52.462;10.846;2023-01-24T01:48:10;103140.00000000001;;;
74485;BMP280;62942;52.462;10.846;2023-01-24T01:49:16;103140.00000000001;;;
74485;BMP280;62942;52.462;10.846;2023-01-24T01:50:26;103140.00000000001;;;
74485;BMP280;62942;52.462;10.846;2023-01-24T01:51:35;103140.00000000001;;;
74485;BMP280;62942;52.462;10.846;2023-01-24T01:52:35;103140.00000000001;;;
74485;BMP280;62942;52.462;10.846;2023-01-24T01:53:37;103150;;;
74485;BMP280;62942;52.462;10.846;2023-01-24T01:54:45;103150;;;
74485;BMP280;62942;52.462;10.846;2023-01-24T01:55:55;103150;;;
74485;BMP280;62942;52.462;10.846;2023-01-24T01:57:05;103150;;;
74485;BMP280;62942;52.462;10.846;2023-01-24T01:58:15;103150;;;
74485;BMP280;62942;52.462;10.846;2023-01-24T01:59:16;103140.00000000001;;;
74485;BMP280;62942;52.462;10.846;2023-01-24T02:00:25;103150;;;
74485;BMP280;62942;52.462;10.846;2023-01-24T02:01:35;103150;;;
74485;BMP280;62942;52.462;10.846;2023-01-24T02:02:46;103150;;;
74485;BMP280;62942;52.462;10.846;2023-01-24T02:03:57;103150;;;
74485;BMP280;62942;52.462;10.846;2023-01-24T02:05:06;103150;;;
74485;BMP280;62942;52.462;10.846;2023-01-24T02:06:19;103150;;;
74485;BMP280;62942;52.462;10.846;2023-01-24T02:07:26;103150;;;
74485;BMP280;62942;52.462;10.846;2023-01-24T02:08:34;103140.00000000001;;;
74485;BMP280;62942;52.462;10.846;2023-01-24T02:09:46;103140.00000000001;;;
74485;BMP280;62942;52.462;10.846;2023-01-24T02:10:44;103150;;;
74485;BMP280;62942;52.462;10.846;2023-01-24T02:11:55;103140.00000000001;;;
74485;BMP280;62942;52.462;10.846;2023-01-24T02:13:04;103150;;;
74485;BMP280;62942;52.462;10.846;2023-01-24T02:14:15;103150;;;
74485;BMP280;62942;52.462;10.846;2023-01-24T02:15:16;103150;;;
74485;BMP280;62942;52.462;10.846;2023-01-24T02:16:24;103140.00000000001;;;
74485;BMP280;62942;52.462;10.846;2023-01-24T02:17:34;103150;;;
74485;BMP280;62942;52.462;10.846;2023-01-24T02:18:35;103150;;;
74485;BMP280;62942;52.462;10.846;2023-01-24T02:19:46;103150;;;
74485;BMP280;62942;52.462;10.846;2023-01-24T02:20:54;103150;;;
74485;BMP280;62942;52.462;10.846;2023-01-24T02:22:07;103150;;;
74485;BMP280;62942;52.462;10.846;2023-01-24T02:23:09;103150;;;
74485;BMP280;62942;52.462;10.846;2023-01-24T02:24:17;103150;;;
74485;BMP280;62942;52.462;10.846;2023-01-24T02:25:16;103150;;;
74485;BMP280;62942;52.462;10.846;2023-01-24T02:26:25;103150;;;
74485;BMP280;62942;52.462;10.846;2023-01-24T02:27:34;103150;;;
74485;BMP280;62942;52.462;10.846;2023-01-24T02:28:45;103150;;;
74485;BMP280;62942;52.462;10.846;2023-01-24T02:29:55;103150;;;
74485;BMP280;62942;52.462;10.846;2023-01-24T02:31:04;103150;;;
74485;BMP280;62942;52.462;10.846;2023-01-24T02:32:05;103150;;;
74485;BMP280;62942;52.462;10.846;2023-01-24T02:33:15;103150;;;
74485;BMP280;62942;52.462;10.846;2023-01-24T02:34:25;103150;;;
74485;BMP280;62942;52.462;10.846;2023-01-24T02:35:34;103150;;;
74485;BMP280;62942;52.462;10.846;2023-01-24T02:36:35;103150;;;
74485;BMP280;62942;52.462;10.846;2023-01-24T02:37:44;103150;;;
74485;BMP280;62942;52.462;10.846;2023-01-24T02:38:56;103150;;;
74485;BMP280;62942;52.462;10.846;2023-01-24T02:40:05;103150;;;
74485;BMP280;62942;52.462;10.846;2023-01-24T02:41:15;103150;;;
74485;BMP280;62942;52.462;10.846;2023-01-24T02:42:25;103150;;;
74485;BMP280;62942;52.462;10.846;2023-01-24T02:43:36;103159.99999999999;;;
74485;BMP280;62942;52.462;10.846;2023-01-24T02:44:45;103150;;;
74485;BMP280;62942;52.462;10.846;2023-01-24T02:45:54;103159.99999999999;;;
74485;BMP280;62942;52.462;10.846;2023-01-24T02:47:04;103150;;;
74485;BMP280;62942;52.462;10.846;2023-01-24T02:48:14;103150;;;
74485;BMP280;62942;52.462;10.846;2023-01-24T02:49:24;103150;;;
74485;BMP280;62942;52.462;10.846;2023-01-24T02:50:34;103150;;;
74485;BMP280;62942;52.462;10.846;2023-01-24T02:51:44;103150;;;
74485;BMP280;62942;52.462;10.846;2023-01-24T02:52:54;103150;;;
74485;BMP280;62942;52.462;10.846;2023-01-24T02:54:04;103150;;;
74485;BMP280;62942;52.462;10.846;2023-01-24T02:55:14;103150;;;
74485;BMP280;62942;52.462;10.846;2023-01-24T02:56:24;103150;;;
74485;BMP280;62942;52.462;10.846;2023-01-24T02:57:34;103150;;;
74485;BMP280;62942;52.462;10.846;2023-01-24T02:58:45;103150;;;
74485;BMP280;62942;52.462;10.846;2023-01-24T02:59:54;103150;;;
74485;BMP280;62942;52.462;10.846;2023-01-24T03:01:04;103150;;;
74485;BMP280;62942;52.462;10.846;2023-01-24T03:02:14;103150;;;
74485;BMP280;62942;52.462;10.846;2023-01-24T03:03:24;103150;;;
74485;BMP280;62942;52.462;10.846;2023-01-24T03:04:34;103150;;;
74485;BMP280;62942;52.462;10.846;2023-01-24T03:05:35;103150;;;
74485;BMP280;62942;52.462;10.846;2023-01-24T03:06:44;103150;;;
74485;BMP280;62942;52.462;10.846;2023-01-24T03:07:44;103150;;;
74485;BMP280;62942;52.462;10.846;2023-01-24T03:08:44;103150;;;
74485;BMP280;62942;52.462;10.846;2023-01-24T03:09:54;103150;;;
74485;BMP280;62942;52.462;10.846;2023-01-24T03:10:55;103150;;;
74485;BMP280;62942;52.462;10.846;2023-01-24T03:12:05;103140.00000000001;;;
74485;BMP280;62942;52.462;10.846;2023-01-24T03:13:14;103140.00000000001;;;
74485;BMP280;62942;52.462;10.846;2023-01-24T03:14:24;103140.00000000001;;;
74485;BMP280;62942;52.462;10.846;2023-01-24T03:15:34;103150;;;
74485;BMP280;62942;52.462;10.846;2023-01-24T03:16:44;103140.00000000001;;;
74485;BMP280;62942;52.462;10.846;2023-01-24T03:17:57;103140.00000000001;;;
74485;BMP280;62942;52.462;10.846;2023-01-24T03:19:04;103140.00000000001;;;
74485;BMP280;62942;52.462;10.846;2023-01-24T03:20:15;103140.00000000001;;;
74485;BMP280;62942;52.462;10.846;2023-01-24T03:21:24;103120;;;
74485;BMP280;62942;52.462;10.846;2023-01-24T03:22:34;103130;;;
74485;BMP280;62942;52.462;10.846;2023-01-24T03:23:45;103120;;;
74485;BMP280;62942;52.462;10.846;2023-01-24T03:24:54;103130;;;
74485;BMP280;62942;52.462;10.846;2023-01-24T03:26:04;103130;;;
74485;BMP280;62942;52.462;10.846;2023-01-24T03:27:15;103140.00000000001;;;
74485;BMP280;62942;52.462;10.846;2023-01-24T03:28:24;103140.00000000001;;;
74485;BMP280;62942;52.462;10.846;2023-01-24T03:29:34;103120;;;
74485;BMP280;62942;52.462;10.846;2023-01-24T03:30:44;103120;;;
74485;BMP280;62942;52.462;10.846;2023-01-24T03:31:44;103120;;;
74485;BMP280;62942;52.462;10.846;2023-01-24T03:32:57;103120;;;
74485;BMP280;62942;52.462;10.846;2023-01-24T03:34:04;103120;;;
74485;BMP280;62942;52.462;10.846;2023-01-24T03:35:04;103120;;;
74485;BMP280;62942;52.462;10.846;2023-01-24T03:36:04;103120;;;
74485;BMP280;62942;52.462;10.846;2023-01-24T03:37:15;103140.00000000001;;;
74485;BMP280;62942;52.462;10.846;2023-01-24T03:38:24;103140.00000000001;;;
74485;BMP280;62942;52.462;10.846;2023-01-24T03:39:34;103140.00000000001;;;
74485;BMP280;62942;52.462;10.846;2023-01-24T03:40:44;103140.00000000001;;;
74485;BMP280;62942;52.462;10.846;2023-01-24T03:41:54;103140.00000000001;;;
74485;BMP280;62942;52.462;10.846;2023-01-24T03:42:54;103140.00000000001;;;
74485;BMP280;62942;52.462;10.846;2023-01-24T03:44:04;103140.00000000001;;;
74485;BMP280;62942;52.462;10.846;2023-01-24T03:45:15;103140.00000000001;;;
74485;BMP280;62942;52.462;10.846;2023-01-24T03:46:24;103150;;;
74485;BMP280;62942;52.462;10.846;2023-01-24T03:47:24;103150;;;
74485;BMP280;62942;52.462;10.846;2023-01-24T03:48:34;103140.00000000001;;;
74485;BMP280;62942;52.462;10.846;2023-01-24T03:49:34;103130;;;
74485;BMP280;62942;52.462;10.846;2023-01-24T03:50:44;103130;;;
74485;BMP280;62942;52.462;10.846;2023-01-24T03:51:54;103130;;;
74485;BMP280;62942;52.462;10.846;2023-01-24T03:53:05;103130;;;
74485;BMP280;62942;52.462;10.846;2023-01-24T03:54:14;103130;;;
74485;BMP280;62942;52.462;10.846;2023-01-24T03:55:24;103130;;;
74485;BMP280;62942;52.462;10.846;2023-01-24T03:56:24;103130;;;
74485;BMP280;62942;52.462;10.846;2023-01-24T03:57:34;103140.00000000001;;;
74485;BMP280;62942;52.462;10.846;2023-01-24T03:58:34;103140.00000000001;;;
74485;BMP280;62942;52.462;10.846;2023-01-24T03:59:44;103140.00000000001;;;
74485;BMP280;62942;52.462;10.846;2023-01-24T04:00:54;103140.00000000001;;;
74485;BMP280;62942;52.462;10.846;2023-01-24T04:02:04;103140.00000000001;;;
74485;BMP280;62942;52.462;10.846;2023-01-24T04:03:05;103140.00000000001;;;
74485;BMP280;62942;52.462;10.846;2023-01-24T04:04:14;103140.00000000001;;;
74485;BMP280;62942;52.462;10.846;2023-01-24T04:05:14;103140.00000000001;;;
74485;BMP280;62942;52.462;10.846;2023-01-24T04:06:14;103140.00000000001;;;
74485;BMP280;62942;52.462;10.846;2023-01-24T04:07:25;103150;;;
74485;BMP280;62942;52.462;10.846;2023-01-24T04:08:24;103140.00000000001;;;
74485;BMP280;62942;52.462;10.846;2023-01-24T04:09:24;103140.00000000001;;;
74485;BMP280;62942;52.462;10.846;2023-01-24T04:10:34;103150;;;
74485;BMP280;62942;52.462;10.846;2023-01-24T04:11:44;103150;;;
74485;BMP280;62942;52.462;10.846;2023-01-24T04:12:54;103150;;;
74485;BMP280;62942;52.462;10.846;2023-01-24T04:14:04;103150;;;
74485;BMP280;62942;52.462;10.846;2023-01-24T04:15:05;103150;;;
74485;BMP280;62942;52.462;10.846;2023-01-24T04:16:14;103150;;;
74485;BMP280;62942;52.462;10.846;2023-01-24T04:17:14;103150;;;
74485;BMP280;62942;52.462;10.846;2023-01-24T04:18:24;103150;;;
74485;BMP280;62942;52.462;10.846;2023-01-24T04:19:34;103159.99999999999;;;
74485;BMP280;62942;52.462;10.846;2023-01-24T04:20:35;103159.99999999999;;;
74485;BMP280;62942;52.462;10.846;2023-01-24T04:21:44;103150;;;
74485;BMP280;62942;52.462;10.846;2023-01-24T04:22:55;103150;;;
74485;BMP280;62942;52.462;10.846;2023-01-24T04:24:04;103150;;;
74485;BMP280;62942;52.462;10.846;2023-01-24T04:25:05;103159.99999999999;;;
74485;BMP280;62942;52.462;10.846;2023-01-24T04:26:14;103150;;;
74485;BMP280;62942;52.462;10.846;2023-01-24T04:27:14;103150;;;
74485;BMP280;62942;52.462;10.846;2023-01-24T04:28:25;103150;;;
74485;BMP280;62942;52.462;10.846;2023-01-24T04:29:34;103150;;;
74485;BMP280;62942;52.462;10.846;2023-01-24T04:30:44;103140.00000000001;;;
74485;BMP280;62942;52.462;10.846;2023-01-24T04:31:54;103140.00000000001;;;
74485;BMP280;62942;52.462;10.846;2023-01-24T04:32:54;103140.00000000001;;;
74485;BMP280;62942;52.462;10.846;2023-01-24T04:34:04;103140.00000000001;;;
74485;BMP280;62942;52.462;10.846;2023-01-24T04:35:15;103140.00000000001;;;
74485;BMP280;62942;52.462;10.846;2023-01-24T04:36:14;103140.00000000001;;;
74485;BMP280;62942;52.462;10.846;2023-01-24T04:37:25;103130;;;
74485;BMP280;62942;52.462;10.846;2023-01-24T04:38:24;103140.00000000001;;;
74485;BMP280;62942;52.462;10.846;2023-01-24T04:39:24;103140.00000000001;;;
74485;BMP280;62942;52.462;10.846;2023-01-24T04:40:34;103140.00000000001;;;
74485;BMP280;62942;52.462;10.846;2023-01-24T04:41:34;103130;;;
74485;BMP280;62942;52.462;10.846;2023-01-24T04:42:44;103140.00000000001;;;
74485;BMP280;62942;52.462;10.846;2023-01-24T04:43:54;103130;;;
74485;BMP280;62942;52.462;10.846;2023-01-24T04:45:05;103140.00000000001;;;
74485;BMP280;62942;52.462;10.846;2023-01-24T04:46:14;103140.00000000001;;;
74485;BMP280;62942;52.462;10.846;2023-01-24T04:47:14;103140.00000000001;;;
74485;BMP280;62942;52.462;10.846;2023-01-24T04:48:24;103130;;;
74485;BMP280;62942;52.462;10.846;2023-01-24T04:49:34;103130;;;
74485;BMP280;62942;52.462;10.846;2023-01-24T04:50:34;103130;;;
74485;BMP280;62942;52.462;10.846;2023-01-24T04:51:46;103130;;;
74485;BMP280;62942;52.462;10.846;2023-01-24T04:52:54;103130;;;
74485;BMP280;62942;52.462;10.846;2023-01-24T04:54:04;103120;;;
74485;BMP280;62942;52.462;10.846;2023-01-24T04:55:14;103140.00000000001;;;
74485;BMP280;62942;52.462;10.846;2023-01-24T04:56:14;103130;;;
74485;BMP280;62942;52.462;10.846;2023-01-24T04:57:24;103130;;;
74485;BMP280;62942;52.462;10.846;2023-01-24T04:58:34;103130;;;
74485;BMP280;62942;52.462;10.846;2023-01-24T04:59:34;103140.00000000001;;;
74485;BMP280;62942;52.462;10.846;2023-01-24T05:00:44;103130;;;
74485;BMP280;62942;52.462;10.846;2023-01-24T05:01:44;103130;;;
74485;BMP280;62942;52.462;10.846;2023-01-24T05:02:54;103130;;;
74485;BMP280;62942;52.462;10.846;2023-01-24T05:04:04;103130;;;
74485;BMP280;62942;52.462;10.846;2023-01-24T05:05:14;103140.00000000001;;;
74485;BMP280;62942;52.462;10.846;2023-01-24T05:06:24;103130;;;
74485;BMP280;62942;52.462;10.846;2023-01-24T05:07:34;103130;;;
74485;BMP280;62942;52.462;10.846;2023-01-24T05:08:44;103130;;;
74485;BMP280;62942;52.462;10.846;2023-01-24T05:09:54;103130;;;
74485;BMP280;62942;52.462;10.846;2023-01-24T05:10:54;103130;;;
74485;BMP280;62942;52.462;10.846;2023-01-24T05:12:04;103140.00000000001;;;
74485;BMP280;62942;52.462;10.846;2023-01-24T05:13:14;103130;;;
74485;BMP280;62942;52.462;10.846;2023-01-24T05:14:24;103130;;;
74485;BMP280;62942;52.462;10.846;2023-01-24T05:15:34;103130;;;
74485;BMP280;62942;52.462;10.846;2023-01-24T05:16:34;103130;;;
74485;BMP280;62942;52.462;10.846;2023-01-24T05:17:44;103140.00000000001;;;
74485;BMP280;62942;52.462;10.846;2023-01-24T05:18:54;103150;;;
74485;BMP280;62942;52.462;10.846;2023-01-24T05:20:04;103130;;;
74485;BMP280;62942;52.462;10.846;2023-01-24T05:21:15;103130;;;
74485;BMP280;62942;52.462;10.846;2023-01-24T05:22:14;103140.00000000001;;;
74485;BMP280;62942;52.462;10.846;2023-01-24T05:23:24;103150;;;
74485;BMP280;62942;52.462;10.846;2023-01-24T05:24:34;103140.00000000001;;;
74485;BMP280;62942;52.462;10.846;2023-01-24T05:25:44;103140.00000000001;;;
74485;BMP280;62942;52.462;10.846;2023-01-24T05:26:54;103140.00000000001;;;
74485;BMP280;62942;52.462;10.846;2023-01-24T05:28:04;103150;;;
74485;BMP280;62942;52.462;10.846;2023-01-24T05:29:14;103150;;;
74485;BMP280;62942;52.462;10.846;2023-01-24T05:30:24;103150;;;
74485;BMP280;62942;52.462;10.846;2023-01-24T05:31:34;103150;;;
74485;BMP280;62942;52.462;10.846;2023-01-24T05:32:34;103150;;;
74485;BMP280;62942;52.462;10.846;2023-01-24T05:33:44;103150;;;
74485;BMP280;62942;52.462;10.846;2023-01-24T05:34:54;103159.99999999999;;;
74485;BMP280;62942;52.462;10.846;2023-01-24T05:36:05;103150;;;
74485;BMP280;62942;52.462;10.846;2023-01-24T05:37:14;103150;;;
74485;BMP280;62942;52.462;10.846;2023-01-24T05:38:14;103159.99999999999;;;
74485;BMP280;62942;52.462;10.846;2023-01-24T05:39:24;103150;;;
74485;BMP280;62942;52.462;10.846;2023-01-24T05:40:34;103150;;;
74485;BMP280;62942;52.462;10.846;2023-01-24T05:41:34;103150;;;
74485;BMP280;62942;52.462;10.846;2023-01-24T05:42:44;103159.99999999999;;;
74485;BMP280;62942;52.462;10.846;2023-01-24T05:43:54;103150;;;
74485;BMP280;62942;52.462;10.846;2023-01-24T05:45:04;103159.99999999999;;;
74485;BMP280;62942;52.462;10.846;2023-01-24T05:46:15;103159.99999999999;;;
74485;BMP280;62942;52.462;10.846;2023-01-24T05:47:24;103159.99999999999;;;
74485;BMP280;62942;52.462;10.846;2023-01-24T05:48:24;103170;;;
74485;BMP280;62942;52.462;10.846;2023-01-24T05:49:34;103170;;;
74485;BMP280;62942;52.462;10.846;2023-01-24T05:50:44;103159.99999999999;;;
74485;BMP280;62942;52.462;10.846;2023-01-24T05:51:54;103159.99999999999;;;
74485;BMP280;62942;52.462;10.846;2023-01-24T05:53:04;103170;;;
74485;BMP280;62942;52.462;10.846;2023-01-24T05:54:14;103170;;;
74485;BMP280;62942;52.462;10.846;2023-01-24T05:55:24;103170;;;
74485;BMP280;62942;52.462;10.846;2023-01-24T05:56:24;103150;;;
74485;BMP280;62942;52.462;10.846;2023-01-24T05:57:34;103150;;;
74485;BMP280;62942;52.462;10.846;2023-01-24T05:58:35;103150;;;
74485;BMP280;62942;52.462;10.846;2023-01-24T05:59:34;103159.99999999999;;;
74485;BMP280;62942;52.462;10.846;2023-01-24T06:00:44;103170;;;
74485;BMP280;62942;52.462;10.846;2023-01-24T06:01:44;103180;;;
74485;BMP280;62942;52.462;10.846;2023-01-24T06:02:54;103170;;;
74485;BMP280;62942;52.462;10.846;2023-01-24T06:04:04;103170;;;
74485;BMP280;62942;52.462;10.846;2023-01-24T06:05:14;103180;;;
74485;BMP280;62942;52.462;10.846;2023-01-24T06:06:24;103180;;;
74485;BMP280;62942;52.462;10.846;2023-01-24T06:07:34;103170;;;
74485;BMP280;62942;52.462;10.846;2023-01-24T06:08:44;103170;;;
74485;BMP280;62942;52.462;10.846;2023-01-24T06:09:54;103170;;;
74485;BMP280;62942;52.462;10.846;2023-01-24T06:11:05;103159.99999999999;;;
74485;BMP280;62942;52.462;10.846;2023-01-24T06:12:14;103180;;;
74485;BMP280;62942;52.462;10.846;2023-01-24T06:13:24;103170;;;
74485;BMP280;62942;52.462;10.846;2023-01-24T06:14:34;103170;;;
74485;BMP280;62942;52.462;10.846;2023-01-24T06:15:44;103180;;;
74485;BMP280;62942;52.462;10.846;2023-01-24T06:16:44;103180;;;
74485;BMP280;62942;52.462;10.846;2023-01-24T06:17:54;103180;;;
74485;BMP280;62942;52.462;10.846;2023-01-24T06:19:04;103180;;;
74485;BMP280;62942;52.462;10.846;2023-01-24T06:20:14;103180;;;
74485;BMP280;62942;52.462;10.846;2023-01-24T06:21:16;103180;;;
74485;BMP280;62942;52.462;10.846;2023-01-24T06:22:25;103180;;;
74485;BMP280;62942;52.462;10.846;2023-01-24T06:23:34;103190.00000000001;;;
74485;BMP280;62942;52.462;10.846;2023-01-24T06:24:44;103180;;;
74485;BMP280;62942;52.462;10.846;2023-01-24T06:25:44;103190.00000000001;;;
74485;BMP280;62942;52.462;10.846;2023-01-24T06:26:54;103190.00000000001;;;
74485;BMP280;62942;52.462;10.846;2023-01-24T06:28:04;103190.00000000001;;;
74485;BMP280;62942;52.462;10.846;2023-01-24T06:29:15;103190.00000000001;;;
74485;BMP280;62942;52.462;10.846;2023-01-24T06:30:24;103190.00000000001;;;
74485;BMP280;62942;52.462;10.846;2023-01-24T06:31:36;103190.00000000001;;;
74485;BMP280;62942;52.462;10.846;2023-01-24T06:32:49;103190.00000000001;;;
74485;BMP280;62942;52.462;10.846;2023-01-24T06:34:00;103200;;;
74485;BMP280;62942;52.462;10.846;2023-01-24T06:35:07;103200;;;
74485;BMP280;62942;52.462;10.846;2023-01-24T06:36:17;103200;;;